KMCO/MCO METAR and TAF weather

Enter ICAO airport designator
Station Type Date Time Source
KMCO METAR 2021/05/14 21:53 UTC NOAA

KMCO 142153Z 02016G21KT 10SM FEW038 27/17 A3007 RMK AO2 SLP180 T02720172


Station Type Date Time Source
KMCO Decoded METAR 2021/05/14 21:53 UTC NOAA

ORLANDO INTERNATIONAL AIRPORT , FL, United States (KMCO) 28-25N 81-20W 29M
May 14, 2021 - 05:53 PM EDT / 2021.05.14 2153 UTC
Wind: from the NNE (020 degrees) at 18 MPH (16 KT) gusting to 24 MPH (21 KT):0
Visibility: 10 mile(s):0
Sky conditions: mostly clear
Temperature: 81.0 F (27.2 C)
Dew Point: 63.0 F (17.2 C)
Relative Humidity: 54%
Pressure (altimeter): 30.07 in. Hg (1018 hPa)
ob: KMCO 142153Z 02016G21KT 10SM FEW038 27/17 A3007 RMK AO2 SLP180 T02720172
cycle: 22

Station Type Date Time Source
KMCO TAF 2021/05/14 21:58 UTC NOAA

TAF
AMD KMCO 142058Z 1421/1524 03014G22KT P6SM SCT035 SCT250
FM150600 02009KT P6SM FEW040 SCT100
FM151400 04011KT P6SM FEW040 SCT250
FM151800 05016G23KT P6SM SCT035 SCT250

Example: see airport list